Time;durP1;ratioP1;P1;durP2;ratioP2;P2;SDS_P1;SDS_P2;PMS_P1;PMS_P2;Temp;Humidity;BMP_temperature;BMP_pressure;BME280_temperature;BME280_humidity;BME280_pressure;Samples;Min_cycle;Max_cycle;Signal;HPM_P1;HPM_P2
2021/01/18 00:01:24;;;;;;;6.15;4.78;;;-2.70;99.90;;;;;;4963903;28;20047;-64
2021/01/18 00:03:50;;;;;;;5.82;4.53;;;-2.70;99.90;;;;;;4964712;28;20043;-64
2021/01/18 00:06:18;;;;;;;5.85;4.30;;;-2.70;99.90;;;;;;4965320;28;20542;-65
2021/01/18 00:08:45;;;;;;;5.07;4.38;;;-2.70;99.90;;;;;;4964326;28;20518;-65
2021/01/18 00:11:14;;;;;;;7.82;4.35;;;-2.70;99.90;;;;;;4964709;28;20121;-65
2021/01/18 00:13:43;;;;;;;5.00;4.10;;;-2.60;99.90;;;;;;4960921;28;20138;-64
2021/01/18 00:16:18;;;;;;;8.20;4.57;;;-2.60;99.90;;;;;;4964266;28;20085;-64
2021/01/18 00:18:46;;;;;;;6.10;4.53;;;-2.60;99.90;;;;;;4964301;28;20051;-64
2021/01/18 00:21:14;;;;;;;6.30;5.22;;;-2.60;99.90;;;;;;4964503;28;20050;-64
2021/01/18 00:23:44;;;;;;;5.63;4.25;;;-2.60;99.90;;;;;;4962977;28;20080;-64
2021/01/18 00:26:11;;;;;;;6.30;4.03;;;-2.50;99.90;;;;;;4964776;28;20051;-64
2021/01/18 00:28:41;;;;;;;4.93;3.90;;;-2.50;99.90;;;;;;4959267;28;20051;-66
2021/01/18 00:31:08;;;;;;;4.82;4.28;;;-2.50;99.90;;;;;;4965052;28;20042;-64
2021/01/18 00:33:36;;;;;;;5.75;3.65;;;-2.50;99.90;;;;;;4962447;28;20383;-65
2021/01/18 00:36:04;;;;;;;4.78;4.25;;;-2.40;99.90;;;;;;4964243;28;20790;-65
2021/01/18 00:38:32;;;;;;;4.43;3.40;;;-2.40;99.90;;;;;;4963658;28;20049;-64
2021/01/18 00:40:58;;;;;;;5.90;3.53;;;-2.40;99.90;;;;;;4964217;28;20582;-64
2021/01/18 00:43:25;;;;;;;6.07;4.28;;;-2.40;99.90;;;;;;4962414;28;20039;-64
2021/01/18 00:45:52;;;;;;;5.53;4.35;;;-2.40;99.90;;;;;;4964038;28;20551;-65
2021/01/18 00:48:19;;;;;;;4.50;3.45;;;-2.40;99.90;;;;;;4962600;28;20051;-64
2021/01/18 00:50:45;;;;;;;6.32;3.97;;;-2.40;99.90;;;;;;4964084;28;20142;-65
2021/01/18 00:53:12;;;;;;;5.63;3.75;;;-2.30;99.90;;;;;;4963339;28;20057;-63
2021/01/18 00:55:42;;;;;;;4.20;3.25;;;-2.40;99.90;;;;;;4961099;28;20177;-63
2021/01/18 00:58:27;;;;;;;3.75;3.10;;;-2.30;99.90;;;;;;4964185;28;20054;-65
2021/01/18 01:01:23;;;;;;;4.18;3.83;;;-2.30;99.90;;;;;;4961668;28;20046;-64
2021/01/18 01:03:52;;;;;;;5.93;3.97;;;-2.30;99.90;;;;;;4963341;28;20379;-63
2021/01/18 01:06:18;;;;;;;4.13;3.20;;;-2.30;99.90;;;;;;4964555;28;20154;-64
2021/01/18 01:08:44;;;;;;;4.28;3.30;;;-2.30;99.90;;;;;;4963066;28;20062;-65
2021/01/18 01:11:11;;;;;;;4.55;3.72;;;-2.30;99.90;;;;;;4963518;28;20042;-65
2021/01/18 01:13:37;;;;;;;5.05;3.70;;;-2.30;99.90;;;;;;4962177;28;20438;-65
2021/01/18 01:16:04;;;;;;;6.53;3.85;;;-2.20;99.90;;;;;;4956757;28;20059;-63
2021/01/18 01:18:31;;;;;;;5.70;4.60;;;-2.20;99.90;;;;;;4967286;28;20058;-66
2021/01/18 01:20:58;;;;;;;4.60;3.42;;;-2.20;99.90;;;;;;4961319;28;20050;-64
2021/01/18 01:23:24;;;;;;;5.38;4.03;;;-2.20;99.90;;;;;;4961133;28;20554;-64
2021/01/18 01:25:51;;;;;;;6.28;5.53;;;-2.20;99.90;;;;;;4963814;28;20127;-64
2021/01/18 01:28:17;;;;;;;3.47;3.17;;;-2.20;99.90;;;;;;4963526;28;20674;-64
2021/01/18 01:30:44;;;;;;;4.82;3.60;;;-2.20;99.90;;;;;;4959792;28;20046;-64
2021/01/18 01:33:11;;;;;;;4.53;3.50;;;-2.20;99.90;;;;;;4963558;28;20070;-65
2021/01/18 01:35:38;;;;;;;5.57;3.97;;;-2.20;99.90;;;;;;4962263;28;20058;-65
2021/01/18 01:38:06;;;;;;;5.50;3.70;;;-2.20;99.90;;;;;;4960199;28;20578;-65
2021/01/18 01:40:32;;;;;;;6.30;4.47;;;-2.20;99.90;;;;;;4963476;28;20539;-64
2021/01/18 01:43:00;;;;;;;4.65;3.83;;;-2.20;99.90;;;;;;4963300;28;20058;-65
2021/01/18 01:45:27;;;;;;;4.88;3.45;;;-2.20;99.90;;;;;;4960454;28;20419;-64
2021/01/18 01:47:55;;;;;;;4.45;3.47;;;-2.10;99.90;;;;;;4962892;28;20073;-64
2021/01/18 01:50:29;;;;;;;3.95;3.10;;;-2.20;99.90;;;;;;4962089;28;20059;-63
2021/01/18 01:53:13;;;;;;;5.07;4.30;;;-2.20;99.90;;;;;;4961897;28;20137;-65
2021/01/18 01:55:40;;;;;;;5.65;3.85;;;-2.10;99.90;;;;;;4957037;28;20050;-64
2021/01/18 01:58:08;;;;;;;4.72;3.95;;;-2.10;99.90;;;;;;4963223;28;20146;-64
2021/01/18 02:00:38;;;;;;;5.57;3.58;;;-2.10;99.90;;;;;;4967390;28;20090;-64
2021/01/18 02:03:12;;;;;;;5.03;3.58;;;-2.10;99.90;;;;;;4967104;28;20057;-64
2021/01/18 02:05:40;;;;;;;4.07;3.40;;;-2.10;99.90;;;;;;4965937;28;20109;-65
2021/01/18 02:08:09;;;;;;;5.80;3.72;;;-2.10;99.90;;;;;;4966715;28;20047;-64
2021/01/18 02:10:37;;;;;;;3.92;3.55;;;-2.10;99.90;;;;;;4966824;28;20479;-64
2021/01/18 02:13:43;;;;;;;5.13;4.00;;;-2.10;99.90;;;;;;4966947;28;20499;-65
2021/01/18 02:16:41;;;;;;;3.25;2.85;;;-2.00;99.90;;;;;;4966275;28;20054;-66
2021/01/18 02:19:43;;;;;;;3.42;2.88;;;-2.00;99.90;;;;;;4966477;28;20054;-64
2021/01/18 02:22:16;;;;;;;3.67;2.92;;;-1.90;99.90;;;;;;4964882;28;20051;-65
2021/01/18 02:25:13;;;;;;;5.85;3.58;;;-2.00;99.90;;;;;;4966065;28;20047;-65
2021/01/18 02:28:07;;;;;;;2.92;2.30;;;-2.00;99.90;;;;;;4964971;28;20091;-65
2021/01/18 02:31:07;;;;;;;5.50;3.13;;;-2.00;99.90;;;;;;4966377;28;20046;-64
2021/01/18 02:33:53;;;;;;;5.10;3.25;;;-2.00;99.90;;;;;;4964860;28;20480;-64
2021/01/18 02:36:22;;;;;;;4.00;3.10;;;-1.90;99.90;;;;;;4964229;28;20057;-65
2021/01/18 02:38:54;;;;;;;4.70;3.10;;;-2.00;99.90;;;;;;4965320;28;20695;-68
2021/01/18 02:41:21;;;;;;;3.60;3.05;;;-2.00;99.90;;;;;;4965006;28;20043;-64
2021/01/18 02:43:52;;;;;;;4.07;3.60;;;-1.90;99.90;;;;;;4971562;28;20105;-64
2021/01/18 02:46:21;;;;;;;4.13;3.15;;;-1.90;99.90;;;;;;4966525;28;20053;-67
2021/01/18 02:48:48;;;;;;;4.22;3.25;;;-1.90;99.90;;;;;;4966419;28;20592;-64
2021/01/18 02:51:20;;;;;;;3.08;2.80;;;-1.90;99.90;;;;;;4966627;28;20479;-65
2021/01/18 02:53:57;;;;;;;4.10;3.13;;;-1.90;99.90;;;;;;4964175;28;20537;-64
2021/01/18 02:56:33;;;;;;;6.03;3.13;;;-1.90;99.90;;;;;;4966149;28;20049;-64
2021/01/18 02:59:02;;;;;;;3.67;2.90;;;-1.90;99.90;;;;;;4965855;28;20038;-68
2021/01/18 03:02:44;;;;;;;4.05;3.42;;;-1.90;99.90;;;;;;4964290;28;20153;-64
2021/01/18 03:05:45;;;;;;;3.92;3.15;;;-1.90;99.90;;;;;;4979620;28;20809;-67
2021/01/18 03:08:28;;;;;;;4.28;3.22;;;-1.90;99.90;;;;;;4978358;28;20058;-64
2021/01/18 03:11:22;;;;;;;4.00;3.28;;;-1.90;99.90;;;;;;4968155;28;20311;-64
2021/01/18 03:14:18;;;;;;;5.15;3.10;;;-1.90;99.90;;;;;;4960320;28;20081;-65
2021/01/18 03:16:49;;;;;;;3.55;2.60;;;-1.90;99.90;;;;;;4963782;28;20366;-68
2021/01/18 03:19:19;;;;;;;4.35;3.05;;;-1.80;99.90;;;;;;4964330;28;20038;-66
2021/01/18 03:21:46;;;;;;;4.57;2.92;;;-1.70;99.90;;;;;;4965896;28;20642;-65
2021/01/18 03:24:21;;;;;;;4.35;3.50;;;-1.70;99.90;;;;;;4964643;28;20047;-66
2021/01/18 03:26:48;;;;;;;3.17;2.97;;;-1.80;99.90;;;;;;4965914;28;20061;-64
2021/01/18 03:29:15;;;;;;;3.33;2.58;;;-1.70;99.90;;;;;;4960981;28;20078;-64
2021/01/18 03:31:43;;;;;;;4.45;3.38;;;-1.80;99.90;;;;;;4962680;28;20066;-67
2021/01/18 03:34:09;;;;;;;4.57;2.95;;;-1.80;99.90;;;;;;4963785;28;20255;-65
2021/01/18 03:36:36;;;;;;;4.32;3.40;;;-1.80;99.90;;;;;;4964104;28;20509;-64
2021/01/18 03:39:03;;;;;;;3.90;2.67;;;-1.80;99.90;;;;;;4968122;28;20038;-65
2021/01/18 03:41:29;;;;;;;3.63;2.90;;;-1.80;99.90;;;;;;4964317;28;20069;-64
2021/01/18 03:43:55;;;;;;;3.67;3.35;;;-1.80;99.90;;;;;;4966985;28;20058;-65
2021/01/18 03:46:22;;;;;;;3.75;3.45;;;-1.80;99.90;;;;;;4965507;28;20051;-64
2021/01/18 03:48:49;;;;;;;3.67;3.22;;;-1.80;99.90;;;;;;4965489;28;20467;-64
2021/01/18 03:51:15;;;;;;;3.30;2.70;;;-1.80;99.90;;;;;;4965784;28;20065;-65
2021/01/18 03:53:42;;;;;;;3.40;2.65;;;-1.80;99.90;;;;;;4965918;28;20633;-64
2021/01/18 03:56:08;;;;;;;4.18;3.13;;;-1.80;99.90;;;;;;4967241;28;20070;-64
2021/01/18 03:58:35;;;;;;;3.10;2.80;;;-1.80;99.90;;;;;;4966493;28;20506;-65
2021/01/18 04:01:01;;;;;;;3.88;3.25;;;-1.80;99.90;;;;;;4966407;28;20057;-65
2021/01/18 04:03:28;;;;;;;4.18;3.40;;;-1.80;99.90;;;;;;4964034;28;20056;-64
2021/01/18 04:05:55;;;;;;;4.68;3.13;;;-1.80;99.90;;;;;;4966312;28;20063;-64
2021/01/18 04:08:21;;;;;;;4.63;3.60;;;-1.80;99.90;;;;;;4965809;28;21257;-65
2021/01/18 04:10:49;;;;;;;5.65;4.60;;;-1.80;99.90;;;;;;4965194;28;20043;-65
2021/01/18 04:13:20;;;;;;;4.43;3.13;;;-1.80;99.90;;;;;;4963655;28;20051;-66
2021/01/18 04:15:46;;;;;;;4.47;3.20;;;-1.80;99.90;;;;;;4966100;28;20051;-65
2021/01/18 04:18:13;;;;;;;4.28;3.42;;;-1.80;99.90;;;;;;4966447;28;20055;-63
2021/01/18 04:20:40;;;;;;;6.57;4.22;;;-1.80;99.90;;;;;;4965208;28;20047;-67
2021/01/18 04:23:06;;;;;;;5.90;4.13;;;-1.80;99.90;;;;;;4964928;28;20078;-64
2021/01/18 04:25:33;;;;;;;7.63;3.65;;;-1.80;99.90;;;;;;4963090;28;20054;-64
2021/01/18 04:28:02;;;;;;;5.22;3.20;;;-1.80;99.90;;;;;;4964428;28;20082;-65
2021/01/18 04:30:36;;;;;;;10.00;3.38;;;-1.80;99.90;;;;;;4964108;28;20077;-64
2021/01/18 04:33:08;;;;;;;4.55;3.60;;;-1.80;99.90;;;;;;4962351;28;20082;-65
2021/01/18 04:35:37;;;;;;;4.22;3.67;;;-1.80;99.90;;;;;;4962655;28;20061;-65
2021/01/18 04:38:05;;;;;;;5.00;3.53;;;-1.80;99.90;;;;;;4968560;28;20457;-64
2021/01/18 04:40:33;;;;;;;3.67;3.15;;;-1.90;99.90;;;;;;4964389;28;20716;-64
2021/01/18 04:43:00;;;;;;;4.88;3.72;;;-1.90;99.90;;;;;;4963958;28;20043;-68
2021/01/18 04:45:28;;;;;;;3.97;3.38;;;-1.80;99.90;;;;;;4962934;28;20644;-65
2021/01/18 04:47:58;;;;;;;4.22;3.58;;;-1.80;99.90;;;;;;4959558;28;20542;-64
2021/01/18 04:50:27;;;;;;;4.10;3.05;;;-1.90;99.90;;;;;;4961793;28;20376;-64
2021/01/18 04:53:02;;;;;;;;;;;-1.80;99.90;;;;;;4962328;28;20046;-65
2021/01/18 04:55:43;;;;;;;5.25;4.03;;;-1.80;99.90;;;;;;4958036;28;19965;-64
2021/01/18 04:58:12;;;;;;;7.10;5.22;;;-1.80;99.90;;;;;;4963660;28;20096;-66
2021/01/18 05:00:46;;;;;;;5.45;4.63;;;-1.80;99.90;;;;;;4963278;28;20042;-64
2021/01/18 05:03:15;;;;;;;6.05;4.82;;;-1.90;99.90;;;;;;4963003;28;20533;-65
2021/01/18 05:05:51;;;;;;;5.93;5.05;;;-1.80;99.90;;;;;;4961832;28;20070;-64
2021/01/18 05:08:35;;;;;;;6.70;4.85;;;-1.80;99.90;;;;;;4962592;28;20546;-66
2021/01/18 05:11:01;;;;;;;6.28;5.65;;;-1.90;99.90;;;;;;4965194;28;20611;-66
2021/01/18 05:13:31;;;;;;;5.97;4.53;;;-1.90;99.90;;;;;;4966388;28;20078;-66
2021/01/18 05:16:00;;;;;;;4.68;4.10;;;-1.90;99.90;;;;;;4967147;28;20050;-64
2021/01/18 05:18:34;;;;;;;6.82;5.72;;;-1.90;99.90;;;;;;4969196;28;20439;-69
2021/01/18 05:21:03;;;;;;;5.90;4.05;;;-1.90;99.90;;;;;;4965492;28;20487;-64
2021/01/18 05:23:31;;;;;;;6.00;4.88;;;-1.90;99.90;;;;;;4964363;28;20104;-65
2021/01/18 05:26:16;;;;;;;5.78;4.60;;;-1.90;99.90;;;;;;4963843;28;20051;-64
2021/01/18 05:28:47;;;;;;;6.55;4.63;;;-1.90;99.90;;;;;;4963645;28;20599;-69
2021/01/18 05:31:38;;;;;;;6.28;5.00;;;-1.90;99.90;;;;;;4961336;28;20374;-65
2021/01/18 05:34:11;;;;;;;7.03;5.25;;;-1.80;99.90;;;;;;4959059;28;20043;-64
2021/01/18 05:36:42;;;;;;;5.97;4.47;;;-1.80;99.90;;;;;;4963709;28;20066;-64
2021/01/18 05:39:13;;;;;;;5.78;5.18;;;-1.80;99.90;;;;;;4962638;28;20055;-65
2021/01/18 05:41:42;;;;;;;9.48;5.03;;;-1.80;99.90;;;;;;4962775;28;20047;-64
2021/01/18 05:44:10;;;;;;;6.90;5.32;;;-1.80;99.90;;;;;;4963347;28;20102;-64
2021/01/18 05:46:38;;;;;;;5.03;4.53;;;-1.80;99.90;;;;;;4963788;28;20101;-64
2021/01/18 05:49:11;;;;;;;10.07;5.32;;;-1.80;99.90;;;;;;4960149;28;20604;-65
2021/01/18 05:51:57;;;;;;;6.60;5.18;;;-1.80;99.90;;;;;;4962205;28;20058;-65
2021/01/18 05:54:25;;;;;;;5.72;4.40;;;-1.90;99.90;;;;;;4962546;28;20455;-66
2021/01/18 05:56:55;;;;;;;8.60;5.13;;;-1.80;99.90;;;;;;4963395;28;20046;-64
2021/01/18 05:59:23;;;;;;;7.00;4.90;;;-1.80;99.90;;;;;;4961929;28;20157;-66
2021/01/18 06:01:54;;;;;;;6.97;5.13;;;-1.80;99.90;;;;;;4963641;28;20131;-66
2021/01/18 06:04:27;;;;;;;8.20;4.72;;;-1.80;99.90;;;;;;4963266;28;20058;-64
2021/01/18 06:06:56;;;;;;;6.85;5.25;;;-1.80;99.90;;;;;;4962318;28;20053;-64
2021/01/18 06:09:24;;;;;;;6.55;5.65;;;-1.80;99.90;;;;;;4960635;28;20058;-65
2021/01/18 06:11:51;;;;;;;8.10;5.43;;;-1.80;99.90;;;;;;4963336;28;20046;-65
2021/01/18 06:14:19;;;;;;;7.22;4.90;;;-1.80;99.90;;;;;;4963420;28;20055;-64
2021/01/18 06:16:54;;;;;;;7.72;4.80;;;-1.80;99.90;;;;;;4962769;28;20557;-65
2021/01/18 06:19:24;;;;;;;9.98;6.47;;;-1.80;99.90;;;;;;4961018;28;20483;-64
2021/01/18 06:21:50;;;;;;;7.28;5.35;;;-1.80;99.90;;;;;;4962971;28;20035;-66
2021/01/18 06:24:26;;;;;;;7.45;5.60;;;-1.80;99.90;;;;;;4962956;28;20402;-64
2021/01/18 06:26:53;;;;;;;8.60;6.40;;;-1.80;99.90;;;;;;4962923;28;20134;-64
2021/01/18 06:29:42;;;;;;;6.18;4.63;;;-1.70;99.90;;;;;;4958638;28;20125;-66
2021/01/18 06:32:13;;;;;;;5.00;4.43;;;-1.70;99.90;;;;;;4959379;28;20067;-64
2021/01/18 06:34:40;;;;;;;6.55;5.22;;;-1.70;99.90;;;;;;4962729;28;20150;-65
2021/01/18 06:37:19;;;;;;;8.43;5.35;;;-1.80;99.90;;;;;;4960432;28;20106;-67
2021/01/18 06:39:46;;;;;;;6.05;5.45;;;-1.70;99.90;;;;;;4960590;28;20058;-65
2021/01/18 06:42:21;;;;;;;10.18;6.10;;;-1.70;99.90;;;;;;4962682;28;20043;-67
2021/01/18 06:44:49;;;;;;;8.43;5.32;;;-1.70;99.90;;;;;;4964955;28;20156;-66
2021/01/18 06:47:25;;;;;;;7.90;6.15;;;-1.70;99.90;;;;;;4962366;28;20136;-64
2021/01/18 06:49:54;;;;;;;8.45;6.25;;;-1.70;99.90;;;;;;4965892;28;20046;-65
2021/01/18 06:52:26;;;;;;;8.20;6.55;;;-1.70;99.90;;;;;;4965773;28;20412;-68
2021/01/18 06:55:12;;;;;;;7.53;5.43;;;-1.70;99.90;;;;;;4966386;28;20047;-64
2021/01/18 06:58:04;;;;;;;9.55;6.25;;;-1.70;99.90;;;;;;4963443;28;20057;-65
2021/01/18 07:00:31;;;;;;;6.53;5.72;;;-1.70;99.90;;;;;;4966513;28;20487;-64
2021/01/18 07:02:59;;;;;;;10.07;7.28;;;-1.70;99.90;;;;;;4965499;28;20058;-66
2021/01/18 07:05:34;;;;;;;11.35;7.93;;;-1.70;99.90;;;;;;4965031;28;20050;-64
2021/01/18 07:08:12;;;;;;;8.90;6.70;;;-1.70;99.90;;;;;;4964902;28;20133;-64
2021/01/18 07:10:47;;;;;;;8.52;6.55;;;-1.70;99.90;;;;;;4965979;28;20086;-65
2021/01/18 07:13:17;;;;;;;9.57;6.88;;;-1.70;99.90;;;;;;4965458;28;20194;-65
2021/01/18 07:15:50;;;;;;;11.68;8.32;;;-1.70;99.90;;;;;;4964411;28;20058;-64
2021/01/18 07:18:18;;;;;;;8.85;7.53;;;-1.70;99.90;;;;;;4968734;28;20142;-65
2021/01/18 07:20:47;;;;;;;12.50;7.55;;;-1.70;99.90;;;;;;4966161;28;20125;-65
2021/01/18 07:23:30;;;;;;;11.95;7.10;;;-1.70;99.90;;;;;;4964859;28;20054;-65
2021/01/18 07:26:15;;;;;;;10.13;6.80;;;-1.70;99.90;;;;;;4964650;28;20065;-68
2021/01/18 07:28:53;;;;;;;8.90;7.40;;;-1.70;99.90;;;;;;4964301;28;20055;-66
2021/01/18 07:31:23;;;;;;;9.77;7.38;;;-1.70;99.90;;;;;;4957096;28;20066;-67
2021/01/18 07:33:50;;;;;;;14.07;7.53;;;-1.70;99.90;;;;;;4965745;28;20057;-69
2021/01/18 07:36:35;;;;;;;11.98;7.88;;;-1.70;99.90;;;;;;4965707;28;20158;-66
2021/01/18 07:39:01;;;;;;;11.85;7.90;;;-1.70;99.90;;;;;;4964854;28;20051;-66
2021/01/18 07:41:37;;;;;;;9.75;6.82;;;-1.70;99.90;;;;;;4964185;28;20055;-65
2021/01/18 07:44:38;;;;;;;9.57;7.45;;;-1.70;99.90;;;;;;4965081;28;20042;-66
2021/01/18 07:47:10;;;;;;;10.30;7.07;;;-1.70;99.90;;;;;;4963331;28;20050;-65
2021/01/18 07:49:45;;;;;;;10.70;6.93;;;-1.70;99.90;;;;;;4963106;28;20351;-68
2021/01/18 07:52:23;;;;;;;9.18;7.53;;;-1.70;99.90;;;;;;4964641;28;20053;-68
2021/01/18 07:54:49;;;;;;;11.00;8.23;;;-1.60;99.90;;;;;;4964345;28;20073;-65
2021/01/18 07:57:38;;;;;;;8.75;7.03;;;-1.60;99.90;;;;;;4962437;28;20134;-65
2021/01/18 08:00:19;;;;;;;12.75;6.95;;;-1.60;99.90;;;;;;4962105;28;20050;-65
2021/01/18 08:02:47;;;;;;;11.13;7.00;;;-1.50;99.90;;;;;;4963258;28;20146;-69
2021/01/18 08:05:27;;;;;;;15.05;8.48;;;-1.50;99.90;;;;;;4964964;28;20387;-65
2021/01/18 08:08:07;;;;;;;8.57;6.68;;;-1.60;99.90;;;;;;4962743;28;20768;-66
2021/01/18 08:10:52;;;;;;;;;;;-1.50;99.90;;;;;;4961963;28;20039;-67
2021/01/18 08:13:54;;;;;;;7.72;5.97;;;-1.50;99.90;;;;;;4960464;28;20044;-65
2021/01/18 08:16:26;;;;;;;9.02;5.68;;;-1.50;99.90;;;;;;4961309;28;20061;-68
2021/01/18 08:19:15;;;;;;;8.50;6.57;;;-1.50;99.90;;;;;;4963554;28;20042;-66
2021/01/18 08:22:00;;;;;;;8.93;6.85;;;-1.50;99.90;;;;;;4961831;28;20125;-68
2021/01/18 08:24:29;;;;;;;7.95;6.55;;;-1.40;99.90;;;;;;4961028;28;20499;-65
2021/01/18 08:27:06;;;;;;;7.78;5.68;;;-1.40;99.90;;;;;;4964186;28;20089;-68
2021/01/18 08:29:49;;;;;;;9.43;6.20;;;-1.30;99.90;;;;;;4958742;28;20066;-65
2021/01/18 08:32:24;;;;;;;8.18;6.07;;;-1.30;99.90;;;;;;4964227;28;20058;-66
2021/01/18 08:35:03;;;;;;;9.25;5.20;;;-1.30;99.90;;;;;;4961206;28;20734;-65
2021/01/18 08:37:32;;;;;;;6.43;4.85;;;-1.20;99.90;;;;;;4962239;28;20050;-65
2021/01/18 08:40:13;;;;;;;6.50;4.75;;;-1.10;99.90;;;;;;4964734;28;20146;-65
2021/01/18 08:42:42;;;;;;;6.40;3.60;;;-1.10;99.90;;;;;;4962433;28;20217;-69
2021/01/18 08:45:19;;;;;;;2.78;2.47;;;-1.00;99.90;;;;;;4963242;28;20466;-65
2021/01/18 08:48:02;;;;;;;3.10;1.90;;;-0.90;99.90;;;;;;4962922;28;20074;-65
2021/01/18 08:50:39;;;;;;;4.78;2.40;;;-0.80;99.90;;;;;;4964258;28;20069;-66
2021/01/18 08:53:32;;;;;;;2.47;1.90;;;-0.70;99.90;;;;;;4963257;28;20055;-68
2021/01/18 08:56:00;;;;;;;3.20;1.65;;;-0.70;99.90;;;;;;4962929;28;20130;-65
2021/01/18 08:58:36;;;;;;;2.15;2.03;;;-0.60;99.90;;;;;;4963851;28;20414;-66
2021/01/18 09:01:11;;;;;;;2.88;1.83;;;-0.60;99.90;;;;;;4963356;28;20046;-65
2021/01/18 09:03:38;;;;;;;2.40;1.95;;;-0.70;99.90;;;;;;4960714;28;20384;-66
2021/01/18 09:06:05;;;;;;;2.65;1.70;;;-0.60;99.90;;;;;;4963674;28;20058;-65
2021/01/18 09:08:31;;;;;;;2.03;1.40;;;-0.60;99.90;;;;;;4962900;28;20188;-65
2021/01/18 09:11:04;;;;;;;3.05;2.00;;;-0.50;99.90;;;;;;4964050;28;20351;-65
2021/01/18 09:13:33;;;;;;;2.05;1.30;;;-0.50;99.90;;;;;;4961281;28;20054;-66
2021/01/18 09:16:04;;;;;;;2.15;1.85;;;-0.40;99.90;;;;;;4959059;28;20079;-67
2021/01/18 09:18:33;;;;;;;1.83;1.52;;;-0.40;99.90;;;;;;4963232;28;20089;-65
2021/01/18 09:21:01;;;;;;;1.50;1.35;;;-0.40;99.90;;;;;;4964397;28;20593;-67
2021/01/18 09:23:28;;;;;;;2.88;1.55;;;-0.40;99.90;;;;;;4961781;28;20055;-68
2021/01/18 09:26:03;;;;;;;4.75;2.05;;;-0.40;99.90;;;;;;4962987;28;20051;-66
2021/01/18 09:28:29;;;;;;;2.78;1.92;;;-0.30;99.90;;;;;;4963941;28;20054;-67
2021/01/18 09:30:56;;;;;;;3.78;2.72;;;-0.30;99.90;;;;;;4963563;28;20077;-66
2021/01/18 09:33:42;;;;;;;4.97;3.45;;;-0.30;99.90;;;;;;4960571;28;20592;-65
2021/01/18 09:36:17;;;;;;;3.08;2.50;;;-0.20;99.90;;;;;;4962762;28;20068;-65
2021/01/18 09:38:45;;;;;;;2.67;1.98;;;-0.20;99.90;;;;;;4956361;28;20057;-65
2021/01/18 09:41:12;;;;;;;5.35;2.28;;;-0.10;99.90;;;;;;4963608;28;20105;-64
2021/01/18 09:43:43;;;;;;;3.08;1.92;;;-0.10;99.90;;;;;;4960515;28;20055;-66
2021/01/18 09:46:10;;;;;;;3.47;2.83;;;0.00;99.90;;;;;;4963970;28;20046;-66
2021/01/18 09:48:38;;;;;;;2.65;2.20;;;0.00;99.90;;;;;;4963289;28;20430;-70
2021/01/18 09:51:07;;;;;;;1.92;1.42;;;0.10;99.90;;;;;;4962879;28;20043;-67
2021/01/18 09:53:34;;;;;;;2.80;1.77;;;0.10;99.90;;;;;;4958597;28;20109;-67
2021/01/18 09:56:12;;;;;;;6.28;2.83;;;0.10;99.90;;;;;;4963740;28;20065;-67
2021/01/18 09:58:46;;;;;;;4.45;3.42;;;0.20;99.90;;;;;;4962877;28;20051;-66
2021/01/18 10:01:15;;;;;;;4.03;2.45;;;0.20;99.90;;;;;;4963526;28;20089;-66
2021/01/18 10:03:52;;;;;;;4.85;3.17;;;0.20;99.90;;;;;;4959532;28;20047;-67
2021/01/18 10:06:27;;;;;;;3.80;1.98;;;0.30;99.90;;;;;;4963490;28;20078;-66
2021/01/18 10:09:18;;;;;;;1.98;1.70;;;0.30;99.90;;;;;;4959803;28;20135;-67
2021/01/18 10:11:47;;;;;;;5.10;2.15;;;0.30;99.90;;;;;;4960891;28;20050;-68
2021/01/18 10:14:18;;;;;;;2.40;1.75;;;0.30;99.90;;;;;;4962879;28;20518;-66
2021/01/18 10:17:04;;;;;;;2.20;2.00;;;0.30;99.90;;;;;;4962949;28;20051;-65
2021/01/18 10:19:33;;;;;;;3.90;1.50;;;0.40;99.90;;;;;;4963122;28;20051;-67
2021/01/18 10:22:01;;;;;;;2.92;1.75;;;0.40;99.90;;;;;;4966508;28;20074;-70
2021/01/18 10:24:36;;;;;;;3.72;2.40;;;0.40;99.90;;;;;;4967064;28;20074;-65
2021/01/18 10:27:07;;;;;;;2.75;1.55;;;0.50;99.90;;;;;;4966546;28;20150;-68
2021/01/18 10:29:33;;;;;;;3.40;1.58;;;0.50;99.90;;;;;;4965844;28;20109;-65
2021/01/18 10:32:00;;;;;;;1.27;1.05;;;0.50;99.90;;;;;;4966419;28;20062;-70
2021/01/18 10:34:33;;;;;;;3.70;1.67;;;0.50;99.90;;;;;;4966800;28;20047;-67
2021/01/18 10:37:18;;;;;;;5.22;1.65;;;0.50;99.90;;;;;;4962815;28;20051;-70
2021/01/18 10:39:46;;;;;;;4.63;1.65;;;0.60;99.90;;;;;;4964266;28;20055;-67
2021/01/18 10:42:13;;;;;;;3.40;1.65;;;0.60;99.90;;;;;;4964515;28;20818;-69
2021/01/18 10:44:48;;;;;;;2.10;1.90;;;0.70;99.90;;;;;;4966454;28;20062;-68
2021/01/18 10:47:15;;;;;;;2.45;1.58;;;0.60;99.90;;;;;;4966611;28;20054;-67
2021/01/18 10:49:50;;;;;;;3.40;1.42;;;0.60;99.90;;;;;;4964921;28;20448;-66
2021/01/18 10:52:17;;;;;;;2.13;1.52;;;0.60;99.90;;;;;;4965720;28;20068;-66
2021/01/18 10:54:59;;;;;;;1.60;1.30;;;0.50;99.90;;;;;;4964829;28;20101;-66
2021/01/18 10:57:42;;;;;;;1.85;1.48;;;0.50;99.90;;;;;;4965012;28;20133;-66
2021/01/18 11:00:10;;;;;;;3.72;1.48;;;0.40;99.90;;;;;;4966161;28;20051;-65
2021/01/18 11:02:39;;;;;;;3.80;1.52;;;0.40;99.90;;;;;;4964267;28;20058;-65
2021/01/18 11:05:07;;;;;;;1.63;1.10;;;0.40;99.90;;;;;;4966214;28;20149;-66
2021/01/18 11:07:35;;;;;;;0.85;0.70;;;0.40;99.90;;;;;;4963626;28;20410;-65
2021/01/18 11:10:14;;;;;;;1.08;0.98;;;0.40;99.90;;;;;;4964717;28;20042;-65
2021/01/18 11:12:41;;;;;;;1.92;1.10;;;0.30;99.90;;;;;;4965439;28;20139;-67
2021/01/18 11:15:11;;;;;;;1.30;0.93;;;0.30;99.90;;;;;;4965825;28;20089;-68
2021/01/18 11:17:39;;;;;;;1.25;0.90;;;0.30;99.90;;;;;;4964707;28;20113;-66
2021/01/18 11:20:08;;;;;;;1.23;1.00;;;0.40;99.90;;;;;;4965827;28;20078;-66
2021/01/18 11:22:35;;;;;;;1.20;1.10;;;0.40;99.90;;;;;;4964573;28;20142;-65
2021/01/18 11:25:02;;;;;;;2.20;0.98;;;0.50;99.90;;;;;;4964796;28;20673;-68
2021/01/18 11:27:29;;;;;;;5.18;1.55;;;0.50;99.90;;;;;;4964022;28;20121;-67
2021/01/18 11:29:56;;;;;;;1.38;0.90;;;0.70;99.90;;;;;;4973668;28;20065;-65
2021/01/18 11:32:22;;;;;;;3.72;1.00;;;0.70;99.90;;;;;;4963665;28;20042;-66
2021/01/18 11:34:49;;;;;;;2.58;1.23;;;0.80;99.90;;;;;;4965879;28;20765;-67
2021/01/18 11:37:15;;;;;;;2.70;2.22;;;0.80;99.90;;;;;;4962748;28;20050;-69
2021/01/18 11:39:41;;;;;;;3.80;1.77;;;0.80;99.90;;;;;;4965288;28;20128;-66
2021/01/18 11:42:08;;;;;;;2.63;1.88;;;0.80;99.90;;;;;;4965805;28;20051;-66
2021/01/18 11:44:34;;;;;;;1.75;1.30;;;0.80;99.90;;;;;;4964711;28;20518;-68
2021/01/18 11:47:02;;;;;;;2.47;2.28;;;0.80;99.90;;;;;;4965238;28;20502;-67
2021/01/18 11:49:29;;;;;;;3.30;1.70;;;0.90;99.90;;;;;;4962172;28;20459;-68
2021/01/18 11:51:57;;;;;;;4.43;1.90;;;1.00;99.90;;;;;;4963028;28;20136;-68
2021/01/18 11:54:25;;;;;;;4.32;2.10;;;1.00;99.90;;;;;;4962696;28;20298;-67
2021/01/18 11:56:51;;;;;;;3.05;2.28;;;1.10;99.90;;;;;;4965329;28;20034;-66
2021/01/18 11:59:18;;;;;;;3.88;2.00;;;1.10;99.90;;;;;;4961858;28;20051;-68
2021/01/18 12:01:45;;;;;;;3.08;2.33;;;1.10;99.90;;;;;;4964067;28;20055;-66
2021/01/18 12:04:12;;;;;;;2.20;1.92;;;1.10;99.90;;;;;;4965209;28;20069;-66
2021/01/18 12:06:40;;;;;;;6.35;2.55;;;1.10;99.90;;;;;;4964961;28;21209;-69
2021/01/18 12:09:08;;;;;;;2.75;2.33;;;1.10;99.90;;;;;;4964442;28;20149;-67
2021/01/18 12:11:36;;;;;;;5.75;2.63;;;1.20;99.90;;;;;;4961246;28;20453;-66
2021/01/18 12:14:03;;;;;;;3.92;3.63;;;1.30;99.90;;;;;;4964840;28;20055;-68
2021/01/18 12:16:29;;;;;;;2.95;2.53;;;1.30;99.90;;;;;;4963329;28;20058;-66
2021/01/18 12:18:57;;;;;;;3.38;2.50;;;1.30;99.90;;;;;;4962874;28;20043;-67
2021/01/18 12:21:24;;;;;;;4.32;2.53;;;1.30;99.90;;;;;;4963396;28;20046;-65
2021/01/18 12:23:50;;;;;;;3.33;2.03;;;1.30;99.90;;;;;;4964321;28;20044;-68
2021/01/18 12:26:18;;;;;;;5.57;3.30;;;1.30;99.90;;;;;;4965314;28;20057;-65
2021/01/18 12:28:46;;;;;;;4.07;2.40;;;1.30;99.90;;;;;;4963261;28;20038;-67
2021/01/18 12:31:13;;;;;;;4.53;2.50;;;1.30;99.90;;;;;;4957454;28;20050;-67
2021/01/18 12:33:40;;;;;;;3.67;2.95;;;1.30;99.90;;;;;;4963297;28;20066;-65
2021/01/18 12:36:07;;;;;;;4.35;3.03;;;1.20;99.90;;;;;;4963983;28;20081;-70
2021/01/18 12:38:34;;;;;;;3.00;2.65;;;1.20;99.90;;;;;;4964465;28;20055;-65
2021/01/18 12:41:01;;;;;;;3.22;2.60;;;1.10;99.90;;;;;;4964184;28;20057;-67
2021/01/18 12:43:28;;;;;;;4.10;2.25;;;1.10;99.90;;;;;;4962246;28;20065;-67
2021/01/18 12:45:56;;;;;;;4.13;3.00;;;1.10;99.90;;;;;;4964891;28;20043;-67
2021/01/18 12:48:23;;;;;;;3.28;2.55;;;1.10;99.90;;;;;;4964275;28;20125;-67
2021/01/18 12:50:49;;;;;;;4.20;2.78;;;1.00;99.90;;;;;;4964974;28;20099;-66
2021/01/18 12:53:43;;;;;;;3.78;2.72;;;1.00;99.90;;;;;;4961519;28;20051;-67
2021/01/18 12:56:02;;;;;;;4.82;2.47;;;1.00;99.90;;;;;;4960379;28;20051;-70
2021/01/18 12:58:29;;;;;;;4.03;2.15;;;1.10;99.90;;;;;;4964509;28;20142;-66
2021/01/18 13:00:56;;;;;;;3.63;2.20;;;1.00;99.90;;;;;;4964422;28;20043;-66
2021/01/18 13:03:22;;;;;;;2.70;1.95;;;1.00;99.90;;;;;;4962282;28;20051;-71
2021/01/18 13:05:52;;;;;;;2.47;1.85;;;0.90;99.90;;;;;;4964531;28;20038;-66
2021/01/18 13:08:19;;;;;;;4.55;2.92;;;0.90;99.90;;;;;;4963051;28;20150;-67
2021/01/18 13:10:45;;;;;;;3.53;2.65;;;0.90;99.90;;;;;;4962991;28;20054;-66
2021/01/18 13:13:12;;;;;;;2.80;1.90;;;0.80;99.90;;;;;;4963564;28;20038;-66
2021/01/18 13:15:38;;;;;;;4.25;2.88;;;0.80;99.90;;;;;;4962119;28;20499;-66